Maldives Meteorological Service

METAR

Station
VRMM
METAR VRMM 120600Z 09003KT 9999 FEW018TCU BKN260 30/26 Q1008 NOSIG=
VRMH
METAR VRMH 120600Z 34003KT -RA 9999 FEW017 BKN110 30/26 Q1009=
VRMK
METAR VRMK 120600Z 14004KT 9999 FEW018 SCT130 BKN260 31/26 Q1008=
VRMT
METAR VRMT 120600Z 09003KT 9999 FEW018 BKN260 32/27 Q1008=
VRMG
METAR VRMG 120600Z 16009KT 9999 FEW018 FEW019CB SCT270 32/27 Q1009 CB S NOSIG=
Last Updated : 2020-07-12 10:58:55

SPECI

Station
VRMM
VRMH
VRMK
VRMT
VRMG
Last Updated : 2020-07-12 10:58:55